Time,TemperatureF,DewpointF,PressureIn,WindDirection,WindDirectionDegrees,WindSpeedMPH,WindSpeedGustMPH,Humidity,HourlyPrecipIn,Conditions,Clouds,dailyrainin,SolarRadiationWatts/m^2,SoftwareType,DateUTC
2013-05-03 00:01:00,60.0,-1.0,-100.00,NW,321,0.0,19.0,8,0.00,,,0.00,0.000000,,2013-05-03 07:01:00,
2013-05-03 00:22:00,62.0,-3.0,-100.00,ENE,57,2.0,10.0,7,0.00,,,0.00,0.000000,,2013-05-03 07:22:00,
2013-05-03 00:32:00,62.0,-3.0,-100.00,ENE,57,2.0,10.0,7,0.00,,,0.00,0.000000,,2013-05-03 07:32:00,
2013-05-03 00:42:00,62.0,-3.0,-100.00,ENE,57,2.0,10.0,7,0.00,,,0.00,0.000000,,2013-05-03 07:42:00,
2013-05-03 00:52:00,62.0,-3.0,-100.00,ENE,57,2.0,10.0,7,0.00,,,0.00,0.000000,,2013-05-03 07:52:00,
2013-05-03 01:21:00,56.0,0.0,-100.00,North,6,0.0,9.0,10,0.00,,,0.00,0.000000,,2013-05-03 08:21:00,
2013-05-03 01:32:00,56.0,0.0,-100.00,North,6,0.0,9.0,10,0.00,,,0.00,0.000000,,2013-05-03 08:32:00,
2013-05-03 01:42:00,56.0,0.0,-100.00,North,6,0.0,9.0,10,0.00,,,0.00,0.000000,,2013-05-03 08:42:00,
2013-05-03 01:52:00,56.0,0.0,-100.00,North,6,0.0,9.0,10,0.00,,,0.00,0.000000,,2013-05-03 08:52:00,
2013-05-03 02:01:00,56.0,0.0,-100.00,North,6,0.0,9.0,10,0.00,,,0.00,0.000000,,2013-05-03 09:01:00,
2013-05-03 02:21:00,51.0,2.0,-100.00,North,11,0.0,9.0,13,0.00,,,0.00,0.000000,,2013-05-03 09:21:00,
2013-05-03 02:33:00,51.0,2.0,-100.00,North,11,0.0,9.0,13,0.00,,,0.00,0.000000,,2013-05-03 09:33:00,
2013-05-03 02:42:00,51.0,2.0,-100.00,North,11,0.0,9.0,13,0.00,,,0.00,0.000000,,2013-05-03 09:42:00,
2013-05-03 02:53:00,51.0,2.0,-100.00,North,11,0.0,9.0,13,0.00,,,0.00,0.000000,,2013-05-03 09:53:00,
2013-05-03 03:02:00,51.0,2.0,-100.00,North,11,0.0,9.0,13,0.00,,,0.00,0.000000,,2013-05-03 10:02:00,
2013-05-03 03:32:00,51.0,4.0,-100.00,NNE,22,0.0,7.0,14,-99.99,,,0.00,0.000000,,2013-05-03 10:32:00,
2013-05-03 03:42:00,51.0,4.0,-100.00,NNE,22,0.0,7.0,14,-99.99,,,0.00,0.000000,,2013-05-03 10:42:00,
2013-05-03 03:52:00,51.0,4.0,-100.00,NNE,22,0.0,7.0,14,-99.99,,,0.00,0.000000,,2013-05-03 10:52:00,
2013-05-03 04:02:00,51.0,4.0,-100.00,NNE,22,0.0,7.0,14,-99.99,,,0.00,0.000000,,2013-05-03 11:02:00,
2013-05-03 04:32:00,57.0,3.0,-100.00,NE,41,1.0,4.0,11,0.00,,,0.00,0.000000,,2013-05-03 11:32:00,
2013-05-03 04:42:00,57.0,3.0,-100.00,NE,41,1.0,4.0,11,0.00,,,0.00,0.000000,,2013-05-03 11:42:00,
2013-05-03 04:52:00,57.0,3.0,-100.00,NE,41,1.0,4.0,11,0.00,,,0.00,0.000000,,2013-05-03 11:52:00,
2013-05-03 05:01:00,57.0,3.0,-100.00,NE,41,1.0,4.0,11,0.00,,,0.00,0.000000,,2013-05-03 12:01:00,
2013-05-03 05:22:00,61.0,2.0,-100.00,NE,36,7.0,7.0,9,0.00,,,0.00,0.000000,,2013-05-03 12:22:00,
2013-05-03 05:32:00,61.0,2.0,-100.00,NE,36,7.0,7.0,9,0.00,,,0.00,0.000000,,2013-05-03 12:32:00,
2013-05-03 05:42:00,61.0,2.0,-100.00,NE,36,7.0,7.0,9,0.00,,,0.00,0.000000,,2013-05-03 12:42:00,
2013-05-03 05:52:00,61.0,2.0,-100.00,NE,36,7.0,7.0,9,0.00,,,0.00,0.000000,,2013-05-03 12:52:00,
2013-05-03 06:01:00,61.0,2.0,-100.00,NE,36,7.0,7.0,9,0.00,,,0.00,0.000000,,2013-05-03 13:01:00,
2013-05-03 06:32:00,58.0,2.0,-100.00,NE,35,3.0,12.0,10,0.00,,,0.00,0.000000,,2013-05-03 13:32:00,
2013-05-03 06:42:00,58.0,2.0,-100.00,NE,35,3.0,12.0,10,0.00,,,0.00,0.000000,,2013-05-03 13:42:00,
2013-05-03 06:52:00,58.0,2.0,-100.00,NE,35,3.0,12.0,10,0.00,,,0.00,0.000000,,2013-05-03 13:52:00,
2013-05-03 07:01:00,58.0,2.0,-100.00,NE,35,3.0,12.0,10,0.00,,,0.00,0.000000,,2013-05-03 14:01:00,
2013-05-03 07:32:00,68.0,5.0,-100.00,NE,48,3.0,10.0,8,0.00,,,0.00,27.000000,,2013-05-03 14:32:00,
2013-05-03 07:42:00,68.0,5.0,-100.00,NE,48,3.0,10.0,8,0.00,,,0.00,27.000000,,2013-05-03 14:42:00,
2013-05-03 07:52:00,68.0,5.0,-100.00,NE,48,3.0,10.0,8,0.00,,,0.00,27.000000,,2013-05-03 14:52:00,
2013-05-03 08:01:00,68.0,5.0,-100.00,NE,48,3.0,10.0,8,0.00,,,0.00,27.000000,,2013-05-03 15:01:00,
2013-05-03 08:03:00,71.0,4.0,-100.00,NE,43,10.0,11.0,7,0.00,,,0.00,0.000000,,2013-05-03 15:03:00,
2013-05-03 08:32:00,71.0,4.0,-100.00,NE,43,10.0,11.0,7,0.00,,,0.00,0.000000,,2013-05-03 15:32:00,
2013-05-03 08:43:00,71.0,4.0,-100.00,NE,43,10.0,11.0,7,0.00,,,0.00,0.000000,,2013-05-03 15:43:00,
2013-05-03 08:53:00,71.0,4.0,-100.00,NE,43,10.0,11.0,7,0.00,,,0.00,0.000000,,2013-05-03 15:53:00,
2013-05-03 09:33:00,74.0,3.0,-100.00,NE,46,10.0,20.0,6,0.00,,,0.00,31.000000,,2013-05-03 16:33:00,
2013-05-03 09:42:00,74.0,3.0,-100.00,NE,46,10.0,20.0,6,0.00,,,0.00,31.000000,,2013-05-03 16:42:00,
2013-05-03 09:52:00,74.0,3.0,-100.00,NE,46,10.0,20.0,6,0.00,,,0.00,31.000000,,2013-05-03 16:52:00,
2013-05-03 10:02:00,74.0,3.0,-100.00,NE,46,10.0,20.0,6,0.00,,,0.00,31.000000,,2013-05-03 17:02:00,
2013-05-03 10:23:00,77.0,1.0,-100.00,East,81,10.0,22.0,5,0.00,,,0.00,555.000000,,2013-05-03 17:23:00,
2013-05-03 10:32:00,77.0,1.0,-100.00,East,81,10.0,22.0,5,0.00,,,0.00,555.000000,,2013-05-03 17:32:00,
2013-05-03 10:42:00,77.0,1.0,-100.00,East,81,10.0,22.0,5,0.00,,,0.00,555.000000,,2013-05-03 17:42:00,
2013-05-03 10:52:00,77.0,1.0,-100.00,East,81,10.0,22.0,5,0.00,,,0.00,555.000000,,2013-05-03 17:52:00,
2013-05-03 11:01:00,77.0,1.0,-100.00,East,81,10.0,22.0,5,0.00,,,0.00,555.000000,,2013-05-03 18:01:00,
2013-05-03 11:32:00,78.0,2.0,-100.00,East,82,11.0,21.0,5,0.00,,,-99.99,645.000000,,2013-05-03 18:32:00,
2013-05-03 11:42:00,78.0,2.0,-100.00,East,82,11.0,21.0,5,0.00,,,-99.99,645.000000,,2013-05-03 18:42:00,
2013-05-03 11:52:00,78.0,2.0,-100.00,East,82,11.0,21.0,5,0.00,,,-99.99,645.000000,,2013-05-03 18:52:00,
2013-05-03 12:01:00,78.0,2.0,-100.00,East,82,11.0,21.0,5,0.00,,,-99.99,645.000000,,2013-05-03 19:01:00,
2013-05-03 12:32:00,78.0,2.0,-100.00,NE,43,9.0,23.0,5,0.00,,,0.00,518.000000,,2013-05-03 19:32:00,
2013-05-03 12:42:00,78.0,2.0,-100.00,NE,43,9.0,23.0,5,0.00,,,0.00,518.000000,,2013-05-03 19:42:00,
2013-05-03 12:52:00,78.0,2.0,-100.00,NE,43,9.0,23.0,5,0.00,,,0.00,518.000000,,2013-05-03 19:52:00,
2013-05-03 13:02:00,78.0,2.0,-100.00,NE,43,9.0,23.0,5,0.00,,,0.00,518.000000,,2013-05-03 20:02:00,
2013-05-03 13:32:00,82.0,4.0,-100.00,ENE,73,9.0,21.0,5,0.00,,,0.00,388.000000,,2013-05-03 20:32:00,
2013-05-03 13:42:00,82.0,4.0,-100.00,ENE,73,9.0,21.0,5,0.00,,,0.00,388.000000,,2013-05-03 20:42:00,
2013-05-03 13:52:00,82.0,4.0,-100.00,ENE,73,9.0,21.0,5,0.00,,,0.00,388.000000,,2013-05-03 20:52:00,
2013-05-03 14:01:00,82.0,4.0,-100.00,ENE,73,9.0,21.0,5,0.00,,,0.00,388.000000,,2013-05-03 21:01:00,
2013-05-03 14:33:00,85.0,7.0,-100.00,East,91,9.0,20.0,5,0.00,,,0.00,584.000000,,2013-05-03 21:33:00,
2013-05-03 14:42:00,85.0,7.0,-100.00,East,91,9.0,20.0,5,0.00,,,0.00,584.000000,,2013-05-03 21:42:00,
2013-05-03 14:52:00,85.0,7.0,-100.00,East,91,9.0,20.0,5,0.00,,,0.00,584.000000,,2013-05-03 21:52:00,
2013-05-03 15:02:00,85.0,7.0,-100.00,East,91,9.0,20.0,5,0.00,,,0.00,584.000000,,2013-05-03 22:02:00,
2013-05-03 17:32:00,78.0,21.0,-100.00,WSW,239,6.0,14.0,12,-99.99,,,0.00,0.000000,,2013-05-04 00:32:00,
2013-05-03 17:42:00,78.0,21.0,-100.00,WSW,239,6.0,14.0,12,-99.99,,,0.00,0.000000,,2013-05-04 00:42:00,
2013-05-03 17:52:00,78.0,21.0,-100.00,WSW,239,6.0,14.0,12,-99.99,,,0.00,0.000000,,2013-05-04 00:52:00,
2013-05-03 18:01:00,78.0,21.0,-100.00,WSW,239,6.0,14.0,12,-99.99,,,0.00,0.000000,,2013-05-04 01:01:00,
2013-05-03 18:32:00,77.0,20.0,-100.00,WNW,286,5.0,14.0,12,0.00,,,0.00,0.000000,,2013-05-04 01:32:00,
2013-05-03 18:42:00,77.0,20.0,-100.00,WNW,286,5.0,14.0,12,0.00,,,0.00,0.000000,,2013-05-04 01:42:00,
2013-05-03 18:52:00,77.0,20.0,-100.00,WNW,286,5.0,14.0,12,0.00,,,0.00,0.000000,,2013-05-04 01:52:00,
2013-05-03 19:02:00,77.0,20.0,-100.00,WNW,286,5.0,14.0,12,0.00,,,0.00,0.000000,,2013-05-04 02:02:00,
2013-05-03 19:21:00,73.0,21.0,-100.00,West,280,5.0,12.0,14,0.00,,,0.00,0.000000,,2013-05-04 02:21:00,
2013-05-03 19:32:00,73.0,21.0,-100.00,West,280,5.0,12.0,14,0.00,,,0.00,0.000000,,2013-05-04 02:32:00,
2013-05-03 19:42:00,73.0,21.0,-100.00,West,280,5.0,12.0,14,0.00,,,0.00,0.000000,,2013-05-04 02:42:00,
2013-05-03 19:52:00,73.0,21.0,-100.00,West,280,5.0,12.0,14,0.00,,,0.00,0.000000,,2013-05-04 02:52:00,
2013-05-03 20:01:00,73.0,21.0,-100.00,West,280,5.0,12.0,14,0.00,,,0.00,0.000000,,2013-05-04 03:01:00,
2013-05-03 20:22:00,69.0,24.0,-100.00,WNW,302,4.0,15.0,18,0.00,,,0.00,0.000000,,2013-05-04 03:22:00,
2013-05-03 20:33:00,69.0,24.0,-100.00,WNW,302,4.0,15.0,18,0.00,,,0.00,0.000000,,2013-05-04 03:33:00,
2013-05-03 20:43:00,69.0,24.0,-100.00,WNW,302,4.0,15.0,18,0.00,,,0.00,0.000000,,2013-05-04 03:43:00,
2013-05-03 20:52:00,69.0,24.0,-100.00,WNW,302,4.0,15.0,18,0.00,,,0.00,0.000000,,2013-05-04 03:52:00,
2013-05-03 21:02:00,69.0,24.0,-100.00,WNW,302,4.0,15.0,18,0.00,,,0.00,0.000000,,2013-05-04 04:02:00,
2013-05-03 21:33:00,65.0,22.0,-100.00,NNW,347,2.0,12.0,19,0.00,,,0.00,0.000000,,2013-05-04 04:33:00,
2013-05-03 21:43:00,65.0,22.0,-100.00,NNW,347,2.0,12.0,19,0.00,,,0.00,0.000000,,2013-05-04 04:43:00,
2013-05-03 21:52:00,65.0,22.0,-100.00,NNW,347,2.0,12.0,19,0.00,,,0.00,0.000000,,2013-05-04 04:52:00,
2013-05-03 22:02:00,65.0,22.0,-100.00,NNW,347,2.0,12.0,19,0.00,,,0.00,0.000000,,2013-05-04 05:02:00,
2013-05-03 22:32:00,53.0,22.0,-100.00,NW,318,0.0,11.0,30,0.00,,,0.00,0.000000,,2013-05-04 05:32:00,
2013-05-03 22:43:00,53.0,22.0,-100.00,NW,318,0.0,11.0,30,0.00,,,0.00,0.000000,,2013-05-04 05:43:00,
2013-05-03 22:52:00,53.0,22.0,-100.00,NW,318,0.0,11.0,30,0.00,,,0.00,0.000000,,2013-05-04 05:52:00,
2013-05-03 23:01:00,53.0,22.0,-100.00,NW,318,0.0,11.0,30,0.00,,,0.00,0.000000,,2013-05-04 06:01:00,
2013-05-03 23:22:00,51.0,22.0,-100.00,NW,309,0.0,4.0,32,-99.99,,,0.00,0.000000,,2013-05-04 06:22:00,
2013-05-03 23:32:00,51.0,22.0,-100.00,NW,309,0.0,4.0,32,-99.99,,,0.00,0.000000,,2013-05-04 06:32:00,